createdAt,value
2023-02-19T00:03:07.084Z,3.50
2023-02-19T00:08:10.398Z,4.70
2023-02-19T00:13:15.299Z,4.77
2023-02-19T00:18:18.838Z,4.17
2023-02-19T00:23:22.350Z,3.07
2023-02-19T00:28:27.543Z,3.93
2023-02-19T00:33:31.201Z,4.30
2023-02-19T00:38:37.674Z,3.47
2023-02-19T00:43:42.697Z,3.23
2023-02-19T00:48:46.136Z,2.73
2023-02-19T00:53:49.587Z,4.07
2023-02-19T00:58:54.288Z,3.33
2023-02-19T01:03:57.667Z,3.83
2023-02-19T01:09:01.161Z,4.10
2023-02-19T01:14:05.778Z,4.33
2023-02-19T01:19:09.057Z,5.07
2023-02-19T01:24:12.594Z,4.00
2023-02-19T01:29:17.405Z,4.97
2023-02-19T01:34:20.643Z,4.93
2023-02-19T01:39:24.066Z,4.90
2023-02-19T01:44:45.937Z,5.07
2023-02-19T01:49:53.669Z,4.83
2023-02-19T01:54:58.132Z,6.00
2023-02-19T02:00:04.968Z,5.00
2023-02-19T02:05:20.804Z,5.80
2023-02-19T02:10:24.244Z,5.03
2023-02-19T02:15:30.199Z,5.27
2023-02-19T02:20:37.215Z,5.03
2023-02-19T02:25:46.811Z,5.77
2023-02-19T02:30:52.782Z,5.10
2023-02-19T02:35:58.581Z,3.90
2023-02-19T02:41:03.048Z,3.90
2023-02-19T02:46:11.805Z,4.13
2023-02-19T02:51:17.532Z,4.67
2023-02-19T02:56:36.999Z,5.40
2023-02-19T03:02:02.027Z,3.23
2023-02-19T03:07:07.554Z,6.80
2023-02-19T03:12:32.193Z,5.00
2023-02-19T03:17:56.188Z,4.47
2023-02-19T03:23:01.869Z,6.73
2023-02-19T03:28:08.116Z,4.07
2023-02-19T03:33:15.082Z,3.03
2023-02-19T03:38:21.018Z,5.73
2023-02-19T03:43:33.948Z,3.93
2023-02-19T03:48:42.715Z,3.50
2023-02-19T03:53:51.345Z,3.27
2023-02-19T03:58:57.705Z,3.70
2023-02-19T04:04:05.538Z,3.60
2023-02-19T04:09:09.971Z,4.07
2023-02-19T04:14:17.338Z,3.20
2023-02-19T04:19:23.304Z,2.63
2023-02-19T04:24:29.536Z,4.63
2023-02-19T04:29:32.860Z,2.70
2023-02-19T04:34:37.590Z,2.60
2023-02-19T04:39:41.007Z,1.80
2023-02-19T04:44:44.423Z,1.30
2023-02-19T04:49:49.149Z,0.90
2023-02-19T04:54:52.586Z,1.47
2023-02-19T04:59:57.444Z,0.90
2023-02-19T05:05:02.126Z,0.90
2023-02-19T05:10:05.642Z,0.90
2023-02-19T05:15:09.120Z,1.30
2023-02-19T05:20:14.687Z,1.33
2023-02-19T05:25:18.085Z,1.03
2023-02-19T05:30:21.480Z,1.10
2023-02-19T05:35:26.219Z,0.80
2023-02-19T05:40:29.655Z,0.80
2023-02-19T05:45:33.218Z,0.90
2023-02-19T05:50:39.773Z,1.10
2023-02-19T05:55:49.225Z,1.33
2023-02-19T06:00:52.677Z,1.20
2023-02-19T06:05:57.241Z,1.43
2023-02-19T06:11:00.494Z,1.73
2023-02-19T06:16:04.724Z,1.40
2023-02-19T06:21:10.566Z,1.53
2023-02-19T06:26:14.895Z,1.67
2023-02-19T06:31:18.825Z,2.30
2023-02-19T06:36:24.422Z,1.87
2023-02-19T06:41:28.744Z,1.63
2023-02-19T06:46:31.919Z,1.53
2023-02-19T06:51:36.626Z,1.50
2023-02-19T06:56:40.890Z,1.50
2023-02-19T07:01:44.931Z,1.63
2023-02-19T07:06:49.782Z,1.50
2023-02-19T07:11:53.354Z,1.60
2023-02-19T07:16:56.862Z,1.60
2023-02-19T07:22:01.502Z,1.50
2023-02-19T07:27:05.094Z,1.37
2023-02-19T07:32:08.465Z,1.07
2023-02-19T07:37:13.052Z,1.73
2023-02-19T07:42:16.373Z,2.20
2023-02-19T07:47:20.310Z,2.43
2023-02-19T07:52:25.023Z,2.13
2023-02-19T07:57:29.253Z,1.43
2023-02-19T08:02:50.270Z,1.30
2023-02-19T08:07:55.245Z,2.30
2023-02-19T08:13:17.062Z,1.83
2023-02-19T08:18:21.460Z,1.80
2023-02-19T08:23:26.380Z,1.67
2023-02-19T08:28:30.086Z,1.47
2023-02-19T08:33:33.578Z,2.53
2023-02-19T08:38:38.556Z,1.77
2023-02-19T08:43:42.331Z,2.57
2023-02-19T08:48:45.741Z,2.37
2023-02-19T08:53:50.371Z,2.03
2023-02-19T08:58:53.690Z,2.57
2023-02-19T09:03:57.244Z,5.23
2023-02-19T09:09:02.249Z,5.33
2023-02-19T09:14:07.530Z,2.03
2023-02-19T09:19:10.862Z,3.47
2023-02-19T09:24:15.566Z,4.00
2023-02-19T09:29:18.962Z,7.40
2023-02-19T09:34:22.309Z,2.47
2023-02-19T09:39:27.240Z,2.07
2023-02-19T09:44:31.903Z,2.50
2023-02-19T09:49:36.908Z,2.87
2023-02-19T09:54:42.427Z,3.00
2023-02-19T09:59:47.718Z,3.13
2023-02-19T10:04:52.276Z,2.23
2023-02-19T10:09:59.901Z,3.30
2023-02-19T10:15:11.734Z,2.03
2023-02-19T10:20:16.278Z,2.30
2023-02-19T10:25:21.170Z,1.83
2023-02-19T10:30:25.869Z,1.83
2023-02-19T10:35:30.049Z,5.43
2023-02-19T10:40:35.018Z,2.83
2023-02-19T10:45:40.847Z,4.43
2023-02-19T10:50:45.843Z,2.83
2023-02-19T10:56:06.003Z,3.47
2023-02-19T11:01:28.100Z,2.30
2023-02-19T11:06:32.922Z,3.20
2023-02-19T11:11:39.773Z,12.70
2023-02-19T11:16:47.765Z,3.23
2023-02-19T11:21:51.146Z,6.20
2023-02-19T11:26:56.264Z,6.83
2023-02-19T11:32:05.572Z,8.63
2023-02-19T11:37:10.486Z,5.30
2023-02-19T11:42:41.202Z,7.63
2023-02-19T11:48:03.219Z,10.70
2023-02-19T11:53:15.510Z,4.77
2023-02-19T11:58:41.694Z,4.90
2023-02-19T12:03:50.925Z,4.87
2023-02-19T12:09:01.848Z,2.83
2023-02-19T12:14:11.211Z,5.20
2023-02-19T12:19:34.048Z,2.97
2023-02-19T12:24:47.535Z,2.60
2023-02-19T12:30:02.543Z,4.50
2023-02-19T12:35:20.149Z,2.13
2023-02-19T12:40:31.836Z,5.63
2023-02-19T12:45:37.651Z,2.90
2023-02-19T12:50:41.640Z,4.30
2023-02-19T12:55:47.814Z,4.30
2023-02-19T13:00:52.652Z,2.10
2023-02-19T13:05:58.845Z,2.30
2023-02-19T13:11:06.335Z,4.43
2023-02-19T13:16:13.668Z,5.73
2023-02-19T13:21:38.826Z,2.70
2023-02-19T13:26:56.945Z,1.70
2023-02-19T13:32:11.732Z,3.60
2023-02-19T13:37:15.339Z,2.50
2023-02-19T13:42:26.071Z,8.60
2023-02-19T13:47:50.348Z,1.53
2023-02-19T13:52:56.401Z,2.97
2023-02-19T13:58:14.572Z,2.33
2023-02-19T14:03:29.561Z,2.13
2023-02-19T14:08:53.245Z,3.00
2023-02-19T14:14:01.700Z,4.73
2023-02-19T14:19:14.553Z,2.40
2023-02-19T14:24:18.072Z,2.70
2023-02-19T14:29:21.384Z,5.17
2023-02-19T14:34:27.382Z,3.10
2023-02-19T14:39:31.826Z,3.90
2023-02-19T14:44:37.242Z,3.37
2023-02-19T14:49:43.591Z,1.80
2023-02-19T14:54:49.430Z,2.70
2023-02-19T14:59:53.301Z,3.77
2023-02-19T15:04:58.389Z,2.87
2023-02-19T15:10:05.511Z,2.33
2023-02-19T15:15:10.799Z,4.33
2023-02-19T15:20:20.058Z,3.40
2023-02-19T15:25:24.307Z,3.33
2023-02-19T15:30:29.531Z,2.30
2023-02-19T15:35:34.252Z,3.23
2023-02-19T15:40:37.965Z,6.47
2023-02-19T15:45:42.908Z,4.20
2023-02-19T15:50:48.782Z,3.10
2023-02-19T15:55:58.204Z,3.33
2023-02-19T16:01:03.916Z,4.00
2023-02-19T16:06:11.406Z,4.30
2023-02-19T16:11:28.633Z,6.30
2023-02-19T16:16:36.188Z,4.37
2023-02-19T16:21:47.739Z,4.73
2023-02-19T16:26:51.113Z,4.93
2023-02-19T16:31:56.752Z,4.23
2023-02-19T16:37:03.802Z,5.27
2023-02-19T16:42:16.095Z,5.60
2023-02-19T16:47:24.366Z,4.30
2023-02-19T16:52:29.515Z,5.10
2023-02-19T16:57:32.935Z,6.23
2023-02-19T17:02:36.362Z,7.70
2023-02-19T17:07:41.132Z,6.80
2023-02-19T17:12:49.415Z,4.23
2023-02-19T17:17:54.595Z,4.60
2023-02-19T17:23:02.722Z,10.33
2023-02-19T17:28:06.065Z,4.93
2023-02-19T17:33:09.505Z,10.73
2023-02-19T17:38:14.715Z,7.10
2023-02-19T17:43:18.570Z,6.63
2023-02-19T17:48:21.865Z,5.60
2023-02-19T17:53:26.470Z,4.50
2023-02-19T17:58:30.515Z,3.27
2023-02-19T18:03:33.732Z,7.80
2023-02-19T18:08:38.410Z,7.57
2023-02-19T18:13:41.751Z,4.10
2023-02-19T18:18:45.511Z,8.63
2023-02-19T18:23:52.846Z,8.13
2023-02-19T18:28:56.108Z,6.47
2023-02-19T18:34:00.962Z,6.50
2023-02-19T18:39:05.714Z,5.50
2023-02-19T18:44:09.369Z,4.80
2023-02-19T18:49:12.842Z,5.27
2023-02-19T18:54:17.680Z,5.60
2023-02-19T18:59:21.742Z,3.97
2023-02-19T19:04:25.292Z,4.13
2023-02-19T19:09:30.246Z,4.03
2023-02-19T19:14:33.759Z,3.37
2023-02-19T19:19:37.255Z,3.73
2023-02-19T19:24:42.137Z,4.17
2023-02-19T19:29:47.548Z,3.90
2023-02-19T19:34:51.149Z,4.43
2023-02-19T19:39:56.197Z,6.07
2023-02-19T19:44:59.700Z,3.20
2023-02-19T19:50:03.219Z,7.83
2023-02-19T19:55:08.378Z,4.43
2023-02-19T20:00:13.335Z,8.30
2023-02-19T20:05:17.020Z,4.97
2023-02-19T20:10:24.313Z,6.17
2023-02-19T20:15:27.957Z,6.60
2023-02-19T20:20:31.704Z,5.87
2023-02-19T20:25:36.821Z,7.03
2023-02-19T20:30:40.432Z,5.57
2023-02-19T20:35:46.211Z,4.70
2023-02-19T20:40:51.047Z,5.33
2023-02-19T20:45:55.417Z,5.97
2023-02-19T20:51:03.242Z,5.43
2023-02-19T20:56:08.597Z,4.63
2023-02-19T21:01:13.157Z,5.37
2023-02-19T21:06:16.606Z,12.33
2023-02-19T21:11:21.449Z,12.27
2023-02-19T21:16:24.896Z,6.87
2023-02-19T21:21:30.288Z,6.63
2023-02-19T21:26:36.290Z,4.00
2023-02-19T21:31:40.342Z,5.07
2023-02-19T21:36:44.104Z,4.50
2023-02-19T21:41:49.140Z,5.07
2023-02-19T21:46:53.015Z,5.87
2023-02-19T21:51:56.609Z,7.87
2023-02-19T21:57:03.691Z,8.70
2023-02-19T22:02:07.836Z,10.27
2023-02-19T22:07:11.444Z,8.93
2023-02-19T22:12:16.841Z,8.73
2023-02-19T22:17:20.927Z,10.77
2023-02-19T22:22:27.084Z,9.77
2023-02-19T22:27:31.872Z,7.67
2023-02-19T22:32:35.765Z,7.03
2023-02-19T22:37:41.274Z,9.90
2023-02-19T22:42:47.167Z,7.20
2023-02-19T22:47:50.605Z,10.30
2023-02-19T22:52:55.561Z,8.50
2023-02-19T22:58:00.762Z,10.07
2023-02-19T23:03:06.924Z,10.33
2023-02-19T23:08:10.285Z,11.10
2023-02-19T23:13:15.125Z,9.67
2023-02-19T23:18:18.794Z,7.87
2023-02-19T23:23:22.174Z,6.80
2023-02-19T23:28:26.877Z,10.13
2023-02-19T23:33:30.219Z,7.83
2023-02-19T23:38:33.567Z,6.37
2023-02-19T23:43:38.545Z,9.30
2023-02-19T23:48:41.824Z,8.90
2023-02-19T23:53:45.136Z,7.50
2023-02-19T23:58:49.759Z,9.23
